地図

経路データ

SID SEASON NUMBER BASIN SUBBASIN NAME ISO_TIME NATURE LAT LON WMO_WIND WMO_PRES WMO_AGENCY TRACK_TYPE DIST2LAND LANDFALL IFLAG USA_AGENCY USA_ATCF_ID USA_LAT USA_LON USA_RECORD USA_STATUS USA_WIND USA_PRES USA_SSHS USA_R34_NE USA_R34_SE USA_R34_SW USA_R34_NW USA_R50_NE USA_R50_SE USA_R50_SW USA_R50_NW USA_R64_NE USA_R64_SE USA_R64_SW USA_R64_NW USA_POCI USA_ROCI USA_RMW USA_EYE TOKYO_LAT TOKYO_LON TOKYO_GRADE TOKYO_WIND TOKYO_PRES TOKYO_R50_DIR TOKYO_R50_LONG TOKYO_R50_SHORT TOKYO_R30_DIR TOKYO_R30_LONG TOKYO_R30_SHORT TOKYO_LAND CMA_LAT CMA_LON CMA_CAT CMA_WIND CMA_PRES HKO_LAT HKO_LON HKO_CAT HKO_WIND HKO_PRES NEWDELHI_LAT NEWDELHI_LON NEWDELHI_GRADE NEWDELHI_WIND NEWDELHI_PRES NEWDELHI_CI NEWDELHI_DP NEWDELHI_POCI REUNION_LAT REUNION_LON REUNION_TYPE REUNION_WIND REUNION_PRES REUNION_TNUM REUNION_CI REUNION_RMW REUNION_R34_NE REUNION_R34_SE REUNION_R34_SW REUNION_R34_NW REUNION_R50_NE REUNION_R50_SE REUNION_R50_SW REUNION_R50_NW REUNION_R64_NE REUNION_R64_SE REUNION_R64_SW REUNION_R64_NW BOM_LAT BOM_LON BOM_TYPE BOM_WIND BOM_PRES BOM_TNUM BOM_CI BOM_RMW BOM_R34_NE BOM_R34_SE BOM_R34_SW BOM_R34_NW BOM_R50_NE BOM_R50_SE BOM_R50_SW BOM_R50_NW BOM_R64_NE BOM_R64_SE BOM_R64_SW BOM_R64_NW BOM_ROCI BOM_POCI BOM_EYE BOM_POS_METHOD BOM_PRES_METHOD NADI_LAT NADI_LON NADI_CAT NADI_WIND NADI_PRES WELLINGTON_LAT WELLINGTON_LON WELLINGTON_WIND WELLINGTON_PRES DS824_LAT DS824_LON DS824_STAGE DS824_WIND DS824_PRES TD9636_LAT TD9636_LON TD9636_STAGE TD9636_WIND TD9636_PRES TD9635_LAT TD9635_LON TD9635_WIND TD9635_PRES TD9635_ROCI NEUMANN_LAT NEUMANN_LON NEUMANN_CLASS NEUMANN_WIND NEUMANN_PRES MLC_LAT MLC_LON MLC_CLASS MLC_WIND MLC_PRES USA_GUST BOM_GUST BOM_GUST_PER REUNION_GUST REUNION_GUST_PER USA_SEAHGT USA_SEARAD_NE USA_SEARAD_SE USA_SEARAD_SW USA_SEARAD_NW STORM_SPEED STORM_DIR
1914191N19087 1914 19 NI BB NOT_NAMED 1914-07-10 00:00:00 TS 18.5000 86.8000 main 172 151 _________O____ -1 18.5000 86.8000 TC 30 3 0
1914191N19087 1914 19 NI BB NOT_NAMED 1914-07-10 03:00:00 TS 18.6700 86.8000 main 151 129 _________PO___ -1 18.7550 86.8000 TC 30 18.5000 86.8000 1 4 0
1914191N19087 1914 19 NI BB NOT_NAMED 1914-07-10 06:00:00 TS 18.8945 86.7885 main 129 109 _________OP___ -1 19.0000 86.8000 TC 30 18.7363 86.7712 1 5 0
1914191N19087 1914 19 NI BB NOT_NAMED 1914-07-10 09:00:00 TS 19.1249 86.7803 main 109 79 _________PP___ -1 19.2350 86.8000 TC 30 18.9781 86.7539 1 5 357
1914191N19087 1914 19 NI BB NOT_NAMED 1914-07-10 12:00:00 TS 19.3654 86.7798 main 79 53 _________OP___ -1 19.5000 86.8000 TC 30 19.2308 86.7596 1 6 2
1914191N19087 1914 19 NI BB NOT_NAMED 1914-07-10 15:00:00 TS 19.6712 86.8075 main 53 35 _________PO___ -1 19.8425 86.8149 TC 30 19.5000 86.8000 1 6 5
1914191N19087 1914 19 NI BB NOT_NAMED 1914-07-10 18:00:00 TS 19.9951 86.8361 main 35 20 _________OP___ -1 20.2000 86.8000 TC 30 19.7902 86.8722 1 6 4
1914191N19087 1914 19 NI BB NOT_NAMED 1914-07-10 21:00:00 TS 20.2901 86.8518 main 20 0 _________PP___ -1 20.4771 86.7893 TC 30 20.1031 86.9143 1 6 351
1914191N19087 1914 19 NI BB NOT_NAMED 1914-07-11 00:00:00 TS 20.6197 86.7248 main 0 0 _________OP___ -1 20.8000 86.6000 TC 30 20.4394 86.8495 1 9 329
1914191N19087 1914 19 NI BB NOT_NAMED 1914-07-11 03:00:00 TS 21.0499 86.3565 main 0 0 _________PO___ -1 21.2999 86.1130 TC 30 20.8000 86.6000 1 13 314
1914191N19087 1914 19 NI BB NOT_NAMED 1914-07-11 06:00:00 TS 21.4958 85.7434 main 0 0 _________OP___ -1 21.8000 85.4000 TC 30 21.1917 86.0867 1 15 303
1914191N19087 1914 19 NI BB NOT_NAMED 1914-07-11 09:00:00 TS 21.8658 84.9856 main 0 0 _________PP___ -1 22.1301 84.5869 TC 30 21.6015 85.3842 1 17 295
1914191N19087 1914 19 NI BB NOT_NAMED 1914-07-11 12:00:00 TS 22.2051 84.1322 main 0 0 _________OP___ -1 22.4000 83.7000 TC 30 22.0102 84.5643 1 17 293
1914191N19087 1914 19 NI BB NOT_NAMED 1914-07-11 15:00:00 TS 22.5461 83.2710 main 0 0 _________PO___ -1 22.6922 82.8420 TC 30 22.4000 83.7000 1 17 293
1914191N19087 1914 19 NI BB NOT_NAMED 1914-07-11 18:00:00 TS 22.8886 82.4038 main 0 0 _________OP___ -1 23.0000 82.0000 TC 30 22.7771 82.8076 1 18 293
1914191N19087 1914 19 NI BB NOT_NAMED 1914-07-11 21:00:00 TS 23.2506 81.5026 main 0 0 _________PP___ -1 23.3730 81.1032 TC 30 23.1283 81.9021 1 17 294
1914191N19087 1914 19 NI BB NOT_NAMED 1914-07-12 00:00:00 TS 23.5699 80.7351 main 0 0 _________OP___ -1 23.7000 80.4000 TC 30 23.4399 81.0702 1 13 295
1914191N19087 1914 19 NI BB NOT_NAMED 1914-07-12 03:00:00 TS 23.7896 80.2584 main 0 0 _________PO___ -1 23.8792 80.1167 TC 30 23.7000 80.4000 1 8 300
1914191N19087 1914 19 NI BB NOT_NAMED 1914-07-12 06:00:00 TS 23.9528 79.9961 main 0 0 _________OP___ -1 24.0000 80.0000 TC 30 23.9057 79.9922 1 6 305
1914191N19087 1914 19 NI BB NOT_NAMED 1914-07-12 09:00:00 TS 24.1109 79.7475 main 0 0 _________PP___ -1 24.1576 79.7426 TC 30 24.0643 79.7525 1 5 306
1914191N19087 1914 19 NI BB NOT_NAMED 1914-07-12 12:00:00 TS 24.2455 79.5558 main 0 0 _________OP___ -1 24.3000 79.5000 TC 30 24.1910 79.6116 1 4 309
1914191N19087 1914 19 NI BB NOT_NAMED 1914-07-12 15:00:00 TS 24.3537 79.4212 main 0 0 _________PO___ -1 24.4074 79.3424 TC 30 24.3000 79.5000 1 3 310
1914191N19087 1914 19 NI BB NOT_NAMED 1914-07-12 18:00:00 TS 24.4448 79.2920 main 0 0 _________OP___ -1 24.5000 79.2000 TC 30 24.4033 79.3609 1 3 304
1914191N19087 1914 19 NI BB NOT_NAMED 1914-07-12 21:00:00 TS 24.5414 79.1207 main 0 0 _________PP___ -1 24.5976 79.0151 TC 30 24.5039 79.1912 1 4 300
1914191N19087 1914 19 NI BB NOT_NAMED 1914-07-13 00:00:00 TS 24.6350 78.9339 main 0 0 _________OP___ -1 24.7000 78.8000 TC 30 24.6025 79.0008 1 3 299
1914191N19087 1914 19 NI BB NOT_NAMED 1914-07-13 03:00:00 NR 24.7000 78.8000 main 0 __________O___ -1 TC 24.7000 78.8000 1 3 298

IBTrACS Databaseについて

本データベースは、米国NOAAが公開する1842年以降の世界の熱帯低気圧のベストトラックデータアーカイブInternational Best Track Archive for Climate Stewardship (IBTrACS)を、ウェブで閲覧しやすい形式に変換したものです。

最終更新日:2021-10-27